This is the latest recevied weather packets stored in our database for station/object KK7RJD. If no packets are shown the sender has not sent any weather packets the latest 10 day(s).
| Time | Temp. | Humidity | Pressure | Rain* | Wind** | Luminosity | Snow |
|---|---|---|---|---|---|---|---|
| 1777449295 | 2.22° C | 78% | 1019.8 hPa | 0 mm | - | 0 W/m² | - |
| 1777448991 | 2.78° C | 78% | 1019.9 hPa | 0 mm | - | 0 W/m² | - |
| 1777448688 | 2.78° C | 78% | 1020 hPa | 0 mm | - | 0 W/m² | - |
| 1777448385 | 3.33° C | 77% | 1019.9 hPa | 0 mm | - | 0 W/m² | - |
| 1777448082 | 3.33° C | 76% | 1020 hPa | 0 mm | - | 0 W/m² | - |
| 1777447777 | 3.89° C | 76% | 1019.9 hPa | 0 mm | - | 0 W/m² | - |
| 1777447473 | 3.33° C | 78% | 1020 hPa | 0 mm | - | 0 W/m² | - |
| 1777447170 | 3.33° C | 77% | 1019.8 hPa | 0 mm | - | 0 W/m² | - |
| 1777446869 | 3.89° C | 75% | 1019.9 hPa | 0 mm | - | 0 W/m² | - |
| 1777446565 | 3.89° C | 75% | 1019.8 hPa | 0 mm | - | 0 W/m² | - |
| 1777446261 | 4.44° C | 74% | 1019.9 hPa | 0 mm | - | 0 W/m² | - |
| 1777445959 | 4.44° C | 74% | 1019.8 hPa | 0 mm | - | 0 W/m² | - |
| 1777445654 | 5° C | 73% | 1019.8 hPa | 0 mm | - | 0 W/m² | - |
| 1777445350 | 5° C | 73% | 1019.9 hPa | 0 mm | - | 0 W/m² | - |
| 1777445046 | 5° C | 72% | 1020 hPa | 0 mm | - | 0 W/m² | - |
| 1777444742 | 5.56° C | 71% | 1019.9 hPa | 0 mm | - | 0 W/m² | - |
| 1777444439 | 6.11° C | 69% | 1019.4 hPa | 0 mm | - | 0 W/m² | - |
| 1777444136 | 6.11° C | 66% | 1019.7 hPa | 0 mm | - | 0 W/m² | - |
| 1777443832 | 5.56° C | 68% | 1019.9 hPa | 0 mm | - | 0 W/m² | - |
| 1777443528 | 5.56° C | 69% | 1020 hPa | 0 mm | - | 0 W/m² | - |
| 1777443224 | 5.56° C | 68% | 1019.8 hPa | 0 mm | - | 0 W/m² | - |
| 1777442921 | 5.56° C | 69% | 1020 hPa | 0 mm | - | 0 W/m² | - |
| 1777442617 | 5° C | 69% | 1019.9 hPa | 0 mm | - | 0 W/m² | - |
| 1777442312 | 5° C | 69% | 1019.8 hPa | 0 mm | - | 0 W/m² | - |
| 1777442010 | 5° C | 68% | 1019.9 hPa | 0 mm | - | 0 W/m² | - |
* Rain latest hour (hover to see other rain measurements)
** Current wind speed in m/s (hover to see current wind gust speed)